SeattleWeather.com

KSEA - Seattle/Metro, Washington, USA
Distance from station: SSW 24mi, 39km
Updated: Thu, 22-Jun-2017 7:53pm PDT
Clear
Clear
 Wind from NNW
Wind: NNW 10 mph , 17 km/h
Temperature: 70°F , 21°C
Dew Point: 43°F , 6°C
Humidity: 38%
Barometer: 30.23 inHg , 1023.7 hPa
Clouds: Clear
Visibility: 10 miles , 16 km
2017/06/23 02:53 KSEA 230253Z 34009KT 10SM CLR 21/06 A3023 RMK AO2 SLP240 T02110056 56006
KBFI - Seattle/Boeing, Washington, USA
Distance from station: SSW 18mi, 29km
Updated: Thu, 22-Jun-2017 7:53pm PDT
Clear
Clear
 Wind from NW
Wind: NW 8 mph , 13 km/h, Gust: 17 mph , 28 km/h
Temperature: 70°F , 21°C
Dew Point: 46°F , 8°C
Humidity: 43%
Barometer: 30.22 inHg , 1023.4 hPa
Clouds: Clear
Visibility: 10 miles , 16 km
2017/06/23 02:53 KBFI 230253Z 31007G15KT 280V340 10SM CLR 21/08 A3022 RMK AO2 SLP232 T02110083 56005
NWS Forecast for 2 Miles WNW South Seattle WA
National Weather Service Forecast for: 2 Miles WNW South Seattle WA
Issued by: National Weather Service Seattle, WA
Updated: 2:52 pm PDT Jun 22, 2017
 
Tonight

Tonight: Clear, with a low around 54. Northeast wind 8 to 15 mph.
Clear
Friday

Friday: Sunny, with a high near 79. North northwest wind 7 to 15 mph.
Sunny
Friday
Night
Friday Night: Clear, with a low around 56. Northeast wind 8 to 16 mph.
Clear
Saturday

Saturday: Sunny, with a high near 88. North northwest wind 7 to 14 mph.
Sunny
Saturday
Night
Saturday Night: Mostly clear, with a low around 63. North northeast wind 9 to 14 mph.
Mostly Clear
Sunday

Sunday: Sunny, with a high near 91.
Sunny
Sunday
Night
Sunday Night: Partly cloudy, with a low around 62.
Partly Cloudy
Monday

Monday: Mostly sunny, with a high near 84.
Mostly Sunny
Monday
Night
Monday Night: Mostly cloudy, with a low around 55.
Mostly Cloudy
Lo 54 °F Hi 79 °F Lo 56 °F Hi 88 °F Lo 63 °F Hi 91 °F Lo 62 °F Hi 84 °F Lo 55 °F

Special Weather Statement
 

Tonight
 
Clear, with a low around 54. Northeast wind 8 to 15 mph.
Friday
 
Sunny, with a high near 79. North northwest wind 7 to 15 mph.
Friday Night
 
Clear, with a low around 56. Northeast wind 8 to 16 mph.
Saturday
 
Sunny, with a high near 88. North northwest wind 7 to 14 mph.
Saturday Night
 
Mostly clear, with a low around 63. North northeast wind 9 to 14 mph.
Sunday
 
Sunny, with a high near 91.
Sunday Night
 
Partly cloudy, with a low around 62.
Monday
 
Mostly sunny, with a high near 84.
Monday Night
 
Mostly cloudy, with a low around 55.
Tuesday
 
Partly sunny, with a high near 71.
Tuesday Night
 
Mostly cloudy, with a low around 54.
Wednesday
 
Mostly cloudy, with a high near 71.
Wednesday Night
 
Mostly cloudy, with a low around 55.
Thursday
 
Mostly sunny, with a high near 72.